createdAt,value
2018-07-22T00:00:12.620Z,59.62
2018-07-22T00:02:41.489Z,59.57
2018-07-22T00:05:10.155Z,59.78
2018-07-22T00:07:38.963Z,59.59
2018-07-22T00:10:17.079Z,59.75
2018-07-22T00:12:45.794Z,59.67
2018-07-22T00:15:14.485Z,59.57
2018-07-22T00:17:43.179Z,59.59
2018-07-22T00:20:11.851Z,59.55
2018-07-22T00:22:40.536Z,59.31
2018-07-22T00:25:09.259Z,59.22
2018-07-22T00:27:37.947Z,58.19
2018-07-22T00:30:07.160Z,57.83
2018-07-22T00:32:35.952Z,58.44
2018-07-22T00:35:04.855Z,58.41
2018-07-22T00:37:33.548Z,58.40
2018-07-22T00:40:02.261Z,58.33
2018-07-22T00:42:30.968Z,58.27
2018-07-22T00:44:59.631Z,58.17
2018-07-22T00:47:28.575Z,58.23
2018-07-22T00:49:57.268Z,58.33
2018-07-22T00:52:25.999Z,58.14
2018-07-22T00:54:54.779Z,58.04
2018-07-22T00:57:23.447Z,58.23
2018-07-22T00:59:52.532Z,58.26
2018-07-22T01:02:21.267Z,58.09
2018-07-22T01:04:50.016Z,58.26
2018-07-22T01:07:18.700Z,58.44
2018-07-22T01:09:47.477Z,58.43
2018-07-22T01:12:16.192Z,58.56
2018-07-22T01:14:44.836Z,58.58
2018-07-22T01:17:13.476Z,58.46
2018-07-22T01:19:42.213Z,59.55
2018-07-22T01:22:10.888Z,59.38
2018-07-22T01:24:39.535Z,59.65
2018-07-22T01:27:08.201Z,58.88
2018-07-22T01:29:36.867Z,59.24
2018-07-22T01:32:05.491Z,59.00
2018-07-22T01:34:34.254Z,58.88
2018-07-22T01:37:02.903Z,58.90
2018-07-22T01:39:31.617Z,58.85
2018-07-22T01:42:00.388Z,58.81
2018-07-22T01:44:29.107Z,59.11
2018-07-22T01:46:57.790Z,59.11
2018-07-22T01:49:26.402Z,59.07
2018-07-22T01:51:55.135Z,58.90
2018-07-22T01:54:23.848Z,59.19
2018-07-22T01:56:52.574Z,59.46
2018-07-22T01:59:21.292Z,59.47
2018-07-22T02:01:49.923Z,59.59
2018-07-22T02:04:18.556Z,59.71
2018-07-22T02:06:47.269Z,60.10
2018-07-22T02:09:15.934Z,60.14
2018-07-22T02:11:44.598Z,60.47
2018-07-22T02:14:13.281Z,60.72
2018-07-22T02:16:42.101Z,61.01
2018-07-22T02:19:10.805Z,61.26
2018-07-22T02:21:39.464Z,61.29
2018-07-22T02:24:08.106Z,61.22
2018-07-22T02:26:36.791Z,61.55
2018-07-22T02:29:05.553Z,61.49
2018-07-22T02:31:34.272Z,61.75
2018-07-22T02:34:02.939Z,61.81
2018-07-22T02:36:31.568Z,61.44
2018-07-22T02:39:00.251Z,61.28
2018-07-22T02:41:28.954Z,61.78
2018-07-22T02:43:57.646Z,61.62
2018-07-22T02:46:26.340Z,62.02
2018-07-22T02:48:54.994Z,61.65
2018-07-22T02:51:23.878Z,62.05
2018-07-22T02:53:52.564Z,62.02
2018-07-22T02:56:21.266Z,62.31
2018-07-22T02:58:49.965Z,62.07
2018-07-22T03:01:18.655Z,62.64
2018-07-22T03:03:47.347Z,63.00
2018-07-22T03:06:16.015Z,63.13
2018-07-22T03:08:44.777Z,62.94
2018-07-22T03:11:13.467Z,63.22
2018-07-22T03:13:42.162Z,63.01
2018-07-22T03:16:10.838Z,63.32
2018-07-22T03:18:39.580Z,63.45
2018-07-22T03:21:08.248Z,63.66
2018-07-22T03:23:36.891Z,63.84
2018-07-22T03:26:05.738Z,63.86
2018-07-22T03:28:34.562Z,63.84
2018-07-22T03:31:03.227Z,63.86
2018-07-22T03:33:31.934Z,63.90
2018-07-22T03:36:00.626Z,63.64
2018-07-22T03:38:29.435Z,63.19
2018-07-22T03:40:58.116Z,63.22
2018-07-22T03:43:26.801Z,62.74
2018-07-22T03:45:55.779Z,62.68
2018-07-22T03:48:24.561Z,61.68
2018-07-22T03:50:53.251Z,61.87
2018-07-22T03:53:21.991Z,61.86
2018-07-22T03:55:50.761Z,61.62
2018-07-22T03:58:19.442Z,61.30
2018-07-22T04:00:48.167Z,61.04
2018-07-22T04:03:16.815Z,61.62
2018-07-22T04:05:45.468Z,62.33
2018-07-22T04:08:14.155Z,62.67
2018-07-22T04:10:42.787Z,62.77
2018-07-22T04:13:11.420Z,62.55
2018-07-22T04:15:40.096Z,62.51
2018-07-22T04:18:08.846Z,62.61
2018-07-22T04:20:37.615Z,62.52
2018-07-22T04:23:06.504Z,62.55
2018-07-22T04:25:35.249Z,62.73
2018-07-22T04:28:03.873Z,62.90
2018-07-22T04:30:32.535Z,63.19
2018-07-22T04:33:01.212Z,63.29
2018-07-22T04:35:29.895Z,63.48
2018-07-22T04:37:58.535Z,63.03
2018-07-22T04:40:27.223Z,63.55
2018-07-22T04:42:56.059Z,63.78
2018-07-22T04:45:24.785Z,64.27
2018-07-22T04:47:53.463Z,64.35
2018-07-22T04:50:22.153Z,64.52
2018-07-22T04:52:50.774Z,64.66
2018-07-22T04:55:19.470Z,64.50
2018-07-22T04:57:48.175Z,64.55
2018-07-22T05:00:16.854Z,64.56
2018-07-22T05:02:45.471Z,64.74
2018-07-22T05:05:14.127Z,64.90
2018-07-22T05:07:42.899Z,64.84
2018-07-22T05:10:11.624Z,64.59
2018-07-22T05:12:40.290Z,64.56
2018-07-22T05:15:08.978Z,64.44
2018-07-22T05:17:37.651Z,64.42
2018-07-22T05:20:06.330Z,64.53
2018-07-22T05:22:34.991Z,64.57
2018-07-22T05:25:03.660Z,64.87
2018-07-22T05:27:32.299Z,64.87
2018-07-22T05:30:00.975Z,64.92
2018-07-22T05:32:29.693Z,65.13
2018-07-22T05:34:58.347Z,65.33
2018-07-22T05:37:27.036Z,65.09
2018-07-22T05:39:55.672Z,65.17
2018-07-22T05:42:24.509Z,65.39
2018-07-22T05:44:53.215Z,64.45
2018-07-22T05:47:21.852Z,64.43
2018-07-22T05:49:50.525Z,63.02
2018-07-22T05:52:19.200Z,62.94
2018-07-22T05:54:47.918Z,62.26
2018-07-22T05:57:16.583Z,61.40
2018-07-22T05:59:45.237Z,60.62
2018-07-22T06:02:13.913Z,59.75
2018-07-22T06:04:42.542Z,60.65
2018-07-22T06:07:11.164Z,59.78
2018-07-22T06:09:39.852Z,60.07
2018-07-22T06:12:08.548Z,59.55
2018-07-22T06:14:37.509Z,59.72
2018-07-22T06:17:06.131Z,59.08
2018-07-22T06:19:34.805Z,58.53
2018-07-22T06:22:03.459Z,57.91
2018-07-22T06:24:32.126Z,57.30
2018-07-22T06:27:00.769Z,57.63
2018-07-22T06:29:29.573Z,56.79
2018-07-22T06:31:58.228Z,57.36
2018-07-22T06:34:26.897Z,56.52
2018-07-22T06:36:55.543Z,56.18
2018-07-22T06:39:24.202Z,55.95
2018-07-22T06:41:52.863Z,56.06
2018-07-22T06:44:21.632Z,56.48
2018-07-22T06:46:50.265Z,56.49
2018-07-22T06:49:18.943Z,56.40
2018-07-22T06:51:47.599Z,56.40
2018-07-22T06:54:16.510Z,56.19
2018-07-22T06:56:45.180Z,55.88
2018-07-22T06:59:13.914Z,55.02
2018-07-22T07:01:42.583Z,54.02
2018-07-22T07:04:11.422Z,53.65
2018-07-22T07:06:40.187Z,53.27
2018-07-22T07:09:10.245Z,52.40
2018-07-22T07:11:39.103Z,52.05
2018-07-22T07:14:08.049Z,50.32
2018-07-22T07:16:37.008Z,50.00
2018-07-22T07:19:05.764Z,49.42
2018-07-22T07:21:34.481Z,48.57
2018-07-22T07:24:03.101Z,48.66
2018-07-22T07:26:31.731Z,48.20
2018-07-22T07:29:00.404Z,47.84
2018-07-22T07:31:29.152Z,47.75
2018-07-22T07:33:57.919Z,47.44
2018-07-22T07:36:26.624Z,47.31
2018-07-22T07:38:55.309Z,46.98
2018-07-22T07:41:23.962Z,46.74
2018-07-22T07:43:52.650Z,46.43
2018-07-22T07:46:21.390Z,47.23
2018-07-22T07:48:50.419Z,46.94
2018-07-22T07:51:19.147Z,46.92
2018-07-22T07:53:47.835Z,47.28
2018-07-22T07:56:16.584Z,46.75
2018-07-22T07:58:45.309Z,45.88
2018-07-22T08:01:14.060Z,45.33
2018-07-22T08:03:42.885Z,46.36
2018-07-22T08:06:11.677Z,44.77
2018-07-22T08:08:40.372Z,45.85
2018-07-22T08:11:09.281Z,44.85
2018-07-22T08:13:38.063Z,45.10
2018-07-22T08:16:06.900Z,43.72
2018-07-22T08:18:35.611Z,43.84
2018-07-22T08:21:04.959Z,42.37
2018-07-22T08:23:33.715Z,43.12
2018-07-22T08:26:02.441Z,43.16
2018-07-22T08:28:42.500Z,43.14
2018-07-22T08:31:11.330Z,43.63
2018-07-22T08:33:40.072Z,43.42
2018-07-22T08:36:09.022Z,44.43
2018-07-22T08:38:37.772Z,42.79
2018-07-22T08:41:06.484Z,43.15
2018-07-22T08:43:35.200Z,44.10
2018-07-22T08:46:03.977Z,44.54
2018-07-22T08:48:32.920Z,44.10
2018-07-22T08:51:01.732Z,44.31
2018-07-22T08:53:30.470Z,44.48
2018-07-22T08:55:59.430Z,45.45
2018-07-22T08:58:28.100Z,45.07
2018-07-22T09:00:56.844Z,44.59
2018-07-22T09:03:25.570Z,44.72
2018-07-22T09:05:54.297Z,44.92
2018-07-22T09:08:23.022Z,45.33
2018-07-22T09:10:51.728Z,45.43
2018-07-22T09:13:20.384Z,45.15
2018-07-22T09:15:49.123Z,45.80
2018-07-22T09:18:17.849Z,46.48
2018-07-22T09:20:46.505Z,46.88
2018-07-22T09:23:15.209Z,46.88
2018-07-22T09:25:43.910Z,47.04
2018-07-22T09:28:12.622Z,46.72
2018-07-22T09:30:41.366Z,46.91
2018-07-22T09:33:11.458Z,47.25
2018-07-22T09:35:40.121Z,46.59
2018-07-22T09:38:08.868Z,45.91
2018-07-22T09:40:37.588Z,45.82
2018-07-22T09:43:06.278Z,45.48
2018-07-22T09:45:34.965Z,45.30
2018-07-22T09:48:03.621Z,44.73
2018-07-22T09:50:32.408Z,44.33
2018-07-22T09:53:01.136Z,44.16
2018-07-22T09:55:33.205Z,44.32
2018-07-22T09:58:02.131Z,43.43
2018-07-22T10:01:07.196Z,43.78
2018-07-22T10:03:35.974Z,42.95
2018-07-22T10:06:04.688Z,42.54
2018-07-22T10:08:33.481Z,43.05
2018-07-22T10:11:02.170Z,43.28
2018-07-22T10:13:30.904Z,44.14
2018-07-22T10:15:59.677Z,44.74
2018-07-22T10:18:28.423Z,45.87
2018-07-22T10:20:57.204Z,46.41
2018-07-22T10:23:26.081Z,46.42
2018-07-22T10:25:54.797Z,47.14
2018-07-22T10:28:23.594Z,47.67
2018-07-22T10:30:52.316Z,47.37
2018-07-22T10:33:21.047Z,48.36
2018-07-22T10:35:49.880Z,49.07
2018-07-22T10:38:18.488Z,47.59
2018-07-22T10:40:47.276Z,46.78
2018-07-22T10:43:16.009Z,47.20
2018-07-22T10:45:44.712Z,46.51
2018-07-22T10:48:13.385Z,46.58
2018-07-22T10:50:42.257Z,46.13
2018-07-22T10:53:11.001Z,45.88
2018-07-22T10:55:39.703Z,44.93
2018-07-22T10:58:08.446Z,44.55
2018-07-22T11:00:37.223Z,43.76
2018-07-22T11:03:07.069Z,42.44
2018-07-22T11:05:35.844Z,41.88
2018-07-22T11:08:04.523Z,40.58
2018-07-22T11:10:33.277Z,40.15
2018-07-22T11:13:01.894Z,40.06
2018-07-22T11:15:30.650Z,40.02
2018-07-22T11:17:59.488Z,39.15
2018-07-22T11:20:28.225Z,40.23
2018-07-22T11:22:56.909Z,40.57
2018-07-22T11:25:25.592Z,40.91
2018-07-22T11:27:54.257Z,41.33
2018-07-22T11:30:23.021Z,40.31
2018-07-22T11:32:51.754Z,40.20
2018-07-22T11:35:20.461Z,40.49
2018-07-22T11:37:49.180Z,40.83
2018-07-22T11:40:17.846Z,39.70
2018-07-22T11:42:46.599Z,39.69
2018-07-22T11:45:15.421Z,39.70
2018-07-22T11:47:44.089Z,39.57
2018-07-22T11:50:12.823Z,40.35
2018-07-22T11:52:41.674Z,40.19
2018-07-22T11:55:10.435Z,40.06
2018-07-22T11:57:39.126Z,40.59
2018-07-22T12:00:07.846Z,40.73
2018-07-22T12:02:36.594Z,41.15
2018-07-22T12:05:05.351Z,39.80
2018-07-22T12:07:34.093Z,39.86
2018-07-22T12:10:02.856Z,40.25
2018-07-22T12:12:31.564Z,40.43
2018-07-22T12:15:00.420Z,39.70
2018-07-22T12:17:29.305Z,39.83
2018-07-22T12:19:58.120Z,38.90
2018-07-22T12:22:26.798Z,39.70
2018-07-22T12:24:55.460Z,39.86
2018-07-22T12:27:24.447Z,40.68
2018-07-22T12:29:53.113Z,40.18
2018-07-22T12:32:22.132Z,41.67
2018-07-22T12:34:50.811Z,41.47
2018-07-22T12:37:19.490Z,41.40
2018-07-22T12:39:48.158Z,40.86
2018-07-22T12:42:16.873Z,40.67
2018-07-22T12:44:45.619Z,40.77
2018-07-22T12:47:14.267Z,40.09
2018-07-22T12:49:42.972Z,39.96
2018-07-22T12:52:11.697Z,39.64
2018-07-22T12:54:40.442Z,43.25
2018-07-22T12:57:09.180Z,47.62
2018-07-22T12:59:38.061Z,52.28
2018-07-22T13:02:06.944Z,56.50
2018-07-22T13:04:35.647Z,55.95
2018-07-22T13:07:04.411Z,55.76
2018-07-22T13:09:33.231Z,57.53
2018-07-22T13:12:01.961Z,57.81
2018-07-22T13:14:30.728Z,59.24
2018-07-22T13:16:59.419Z,59.64
2018-07-22T13:19:28.105Z,58.75
2018-07-22T13:21:56.925Z,54.85
2018-07-22T13:24:25.572Z,55.60
2018-07-22T13:26:54.323Z,53.70
2018-07-22T13:29:23.022Z,53.07
2018-07-22T13:31:51.733Z,48.16
2018-07-22T13:34:20.447Z,47.22
2018-07-22T13:36:49.144Z,45.89
2018-07-22T13:39:18.048Z,45.20
2018-07-22T13:41:47.101Z,45.34
2018-07-22T13:44:15.755Z,44.96
2018-07-22T13:46:44.888Z,44.33
2018-07-22T13:49:13.679Z,44.85
2018-07-22T13:51:42.446Z,43.53
2018-07-22T13:54:11.151Z,43.71
2018-07-22T13:56:39.844Z,43.76
2018-07-22T13:59:08.608Z,43.44
2018-07-22T14:01:37.353Z,43.01
2018-07-22T14:04:06.132Z,42.40
2018-07-22T14:06:34.869Z,42.69
2018-07-22T14:09:04.220Z,42.52
2018-07-22T14:11:32.924Z,42.73
2018-07-22T14:14:01.666Z,41.91
2018-07-22T14:16:30.365Z,40.82
2018-07-22T14:19:00.473Z,41.03
2018-07-22T14:21:29.415Z,41.77
2018-07-22T14:23:59.115Z,41.50
2018-07-22T14:26:28.083Z,41.44
2018-07-22T14:28:56.822Z,42.05
2018-07-22T14:31:25.511Z,42.01
2018-07-22T14:33:54.824Z,42.13
2018-07-22T14:36:23.724Z,41.90
2018-07-22T14:38:52.455Z,41.61
2018-07-22T14:41:21.188Z,41.53
2018-07-22T14:43:50.020Z,41.95
2018-07-22T14:46:18.850Z,43.07
2018-07-22T14:48:47.573Z,42.89
2018-07-22T14:51:16.372Z,43.29
2018-07-22T14:53:45.100Z,43.10
2018-07-22T14:56:14.517Z,43.50
2018-07-22T14:58:43.347Z,43.06
2018-07-22T15:01:13.524Z,43.12
2018-07-22T15:03:42.886Z,43.26
2018-07-22T15:06:12.020Z,43.24
2018-07-22T15:08:41.015Z,43.24
2018-07-22T15:11:09.725Z,43.27
2018-07-22T15:13:38.662Z,43.68
2018-07-22T15:16:07.959Z,44.03
2018-07-22T15:18:36.788Z,44.38
2018-07-22T15:21:05.544Z,44.73
2018-07-22T15:23:34.520Z,45.57
2018-07-22T15:26:03.700Z,45.36
2018-07-22T15:28:32.445Z,46.33
2018-07-22T15:31:01.241Z,46.25
2018-07-22T15:33:29.925Z,45.48
2018-07-22T15:35:58.604Z,46.39
2018-07-22T15:38:27.348Z,46.24
2018-07-22T15:40:56.076Z,46.95
2018-07-22T15:43:24.733Z,48.00
2018-07-22T15:45:53.467Z,47.34
2018-07-22T15:48:22.319Z,48.48
2018-07-22T15:50:51.058Z,48.43
2018-07-22T15:53:19.849Z,48.33
2018-07-22T15:55:48.650Z,48.09
2018-07-22T15:58:18.001Z,48.68
2018-07-22T16:00:47.584Z,49.24
2018-07-22T16:03:16.467Z,49.72
2018-07-22T16:05:45.244Z,49.12
2018-07-22T16:08:13.978Z,49.24
2018-07-22T16:10:42.689Z,48.80
2018-07-22T16:13:11.399Z,49.74
2018-07-22T16:15:40.202Z,49.64
2018-07-22T16:18:08.892Z,49.40
2018-07-22T16:20:37.711Z,49.90
2018-07-22T16:23:06.390Z,50.14
2018-07-22T16:25:35.101Z,50.28
2018-07-22T16:28:04.283Z,50.32
2018-07-22T16:30:33.030Z,50.80
2018-07-22T16:33:02.131Z,50.66
2018-07-22T16:35:30.969Z,50.60
2018-07-22T16:37:59.739Z,49.92
2018-07-22T16:40:28.488Z,49.83
2018-07-22T16:42:58.313Z,50.10
2018-07-22T16:45:27.123Z,49.24
2018-07-22T16:47:55.883Z,49.23
2018-07-22T16:50:24.923Z,48.11
2018-07-22T16:52:53.646Z,48.39
2018-07-22T16:55:22.452Z,48.07
2018-07-22T16:57:51.141Z,47.61
2018-07-22T17:00:19.907Z,46.90
2018-07-22T17:02:48.578Z,46.34
2018-07-22T17:05:17.298Z,45.91
2018-07-22T17:07:46.096Z,46.03
2018-07-22T17:10:14.793Z,44.66
2018-07-22T17:12:43.538Z,44.66
2018-07-22T17:15:12.336Z,44.66
2018-07-22T17:17:41.096Z,43.40
2018-07-22T17:20:09.827Z,44.01
2018-07-22T17:22:38.591Z,43.24
2018-07-22T17:25:07.483Z,42.63
2018-07-22T17:27:36.290Z,42.24
2018-07-22T17:30:05.308Z,41.64
2018-07-22T17:32:34.199Z,40.71
2018-07-22T17:35:02.967Z,41.47
2018-07-22T17:37:31.689Z,42.27
2018-07-22T17:40:01.300Z,40.89
2018-07-22T17:42:31.685Z,41.16
2018-07-22T17:45:00.494Z,41.53
2018-07-22T17:47:30.003Z,41.94
2018-07-22T17:49:58.954Z,41.61
2018-07-22T17:52:28.043Z,41.37
2018-07-22T17:54:56.737Z,41.36
2018-07-22T17:57:25.661Z,40.73
2018-07-22T17:59:54.380Z,40.86
2018-07-22T18:02:23.221Z,41.88
2018-07-22T18:04:52.090Z,42.44
2018-07-22T18:07:20.717Z,42.54
2018-07-22T18:09:49.546Z,42.70
2018-07-22T18:12:18.359Z,43.55
2018-07-22T18:14:47.096Z,42.56
2018-07-22T18:17:15.865Z,44.24
2018-07-22T18:19:44.613Z,41.67
2018-07-22T18:22:13.411Z,43.93
2018-07-22T18:24:42.123Z,43.20
2018-07-22T18:27:11.082Z,43.21
2018-07-22T18:29:39.772Z,43.63
2018-07-22T18:32:08.545Z,42.99
2018-07-22T18:34:37.340Z,44.15
2018-07-22T18:37:06.341Z,44.29
2018-07-22T18:39:35.114Z,43.95
2018-07-22T18:42:03.969Z,44.46
2018-07-22T18:44:32.853Z,44.88
2018-07-22T18:47:01.828Z,44.77
2018-07-22T18:49:30.641Z,45.11
2018-07-22T18:52:00.020Z,44.28
2018-07-22T18:54:28.731Z,45.11
2018-07-22T18:56:57.599Z,45.43
2018-07-22T18:59:26.435Z,45.59
2018-07-22T19:01:55.226Z,45.85
2018-07-22T19:04:24.089Z,46.14
2018-07-22T19:06:52.821Z,46.60
2018-07-22T19:09:21.580Z,47.17
2018-07-22T19:11:50.245Z,47.68
2018-07-22T19:14:19.053Z,47.87
2018-07-22T19:16:47.779Z,48.94
2018-07-22T19:19:16.713Z,50.31
2018-07-22T19:21:45.781Z,49.61
2018-07-22T19:24:14.570Z,50.36
2018-07-22T19:26:43.830Z,50.46
2018-07-22T19:29:12.679Z,50.80
2018-07-22T19:31:41.532Z,51.68
2018-07-22T19:34:10.296Z,51.83
2018-07-22T19:36:39.124Z,52.53
2018-07-22T19:39:08.286Z,51.90
2018-07-22T19:41:37.281Z,52.14
2018-07-22T19:44:06.304Z,52.73
2018-07-22T19:46:35.067Z,53.40
2018-07-22T19:49:04.120Z,53.75
2018-07-22T19:51:32.848Z,53.75
2018-07-22T19:54:01.676Z,53.32
2018-07-22T19:56:30.455Z,53.18
2018-07-22T19:58:59.405Z,54.17
2018-07-22T20:01:28.101Z,54.50
2018-07-22T20:03:57.011Z,54.49
2018-07-22T20:06:25.823Z,53.58
2018-07-22T20:08:54.594Z,52.89
2018-07-22T20:11:23.384Z,53.69
2018-07-22T20:13:52.148Z,54.87
2018-07-22T20:16:21.128Z,54.96
2018-07-22T20:18:49.889Z,54.68
2018-07-22T20:21:19.014Z,53.85
2018-07-22T20:23:47.828Z,54.38
2018-07-22T20:26:16.599Z,54.59
2018-07-22T20:28:45.332Z,55.92
2018-07-22T20:31:14.379Z,56.06
2018-07-22T20:33:43.322Z,56.70
2018-07-22T20:36:12.421Z,57.12
2018-07-22T20:38:41.255Z,58.43
2018-07-22T20:41:10.084Z,62.65
2018-07-22T20:43:39.842Z,64.06
2018-07-22T20:46:08.662Z,64.46
2018-07-22T20:48:37.370Z,65.34
2018-07-22T20:51:06.181Z,66.03
2018-07-22T20:53:34.843Z,66.46
2018-07-22T20:56:03.786Z,66.28
2018-07-22T20:58:32.667Z,66.91
2018-07-22T21:01:01.541Z,68.37
2018-07-22T21:03:30.347Z,68.97
2018-07-22T21:05:59.160Z,69.03
2018-07-22T21:08:28.062Z,68.93
2018-07-22T21:10:56.828Z,68.79
2018-07-22T21:13:26.910Z,69.47
2018-07-22T21:15:56.144Z,69.86
2018-07-22T21:18:25.040Z,70.55
2018-07-22T21:20:54.071Z,71.27
2018-07-22T21:23:22.910Z,71.01
2018-07-22T21:25:51.716Z,71.51
2018-07-22T21:28:20.485Z,71.72
2018-07-22T21:30:49.380Z,71.61
2018-07-22T21:33:18.170Z,71.66
2018-07-22T21:35:47.132Z,71.72
2018-07-22T21:38:15.973Z,71.95
2018-07-22T21:40:44.947Z,72.14
2018-07-22T21:43:13.640Z,72.11
2018-07-22T21:45:42.424Z,72.03
2018-07-22T21:48:11.272Z,71.79
2018-07-22T21:50:40.646Z,71.81
2018-07-22T21:53:09.359Z,70.89
2018-07-22T21:55:38.152Z,70.78
2018-07-22T21:58:07.208Z,70.98
2018-07-22T22:00:41.581Z,70.73
2018-07-22T22:03:10.527Z,70.69
2018-07-22T22:05:39.245Z,70.50
2018-07-22T22:08:08.465Z,70.63
2018-07-22T22:10:37.204Z,70.54
2018-07-22T22:13:05.954Z,70.94
2018-07-22T22:15:34.696Z,71.38
2018-07-22T22:18:04.444Z,71.44
2018-07-22T22:20:33.316Z,70.99
2018-07-22T22:23:02.204Z,70.99
2018-07-22T22:25:31.281Z,70.95
2018-07-22T22:28:00.400Z,70.75
2018-07-22T22:30:29.091Z,70.54
2018-07-22T22:32:57.852Z,70.60
2018-07-22T22:35:26.605Z,70.53
2018-07-22T22:37:55.461Z,70.64
2018-07-22T22:40:24.188Z,70.95
2018-07-22T22:42:53.088Z,70.75
2018-07-22T22:45:21.918Z,70.89
2018-07-22T22:47:50.673Z,70.75
2018-07-22T22:50:19.437Z,70.88
2018-07-22T22:52:49.206Z,71.00
2018-07-22T22:55:17.944Z,70.89
2018-07-22T22:57:57.981Z,71.11
2018-07-22T23:00:26.632Z,70.79
2018-07-22T23:02:55.319Z,70.98
2018-07-22T23:05:24.032Z,71.14
2018-07-22T23:07:52.788Z,71.03
2018-07-22T23:10:21.548Z,70.85
2018-07-22T23:12:50.373Z,71.08
2018-07-22T23:15:19.169Z,71.61
2018-07-22T23:17:47.931Z,72.19
2018-07-22T23:20:16.641Z,72.06
2018-07-22T23:22:45.381Z,72.35
2018-07-22T23:25:14.149Z,72.36
2018-07-22T23:27:42.961Z,72.35
2018-07-22T23:30:11.708Z,72.60
2018-07-22T23:32:40.574Z,72.59
2018-07-22T23:35:09.235Z,72.39
2018-07-22T23:37:37.956Z,72.46
2018-07-22T23:40:06.703Z,72.69
2018-07-22T23:42:35.449Z,72.73
2018-07-22T23:45:04.516Z,72.68
2018-07-22T23:47:33.225Z,72.67
2018-07-22T23:50:02.193Z,72.40
2018-07-22T23:52:30.867Z,73.32
2018-07-22T23:54:59.604Z,73.44
2018-07-22T23:57:28.391Z,72.99
2018-07-22T23:59:57.016Z,73.49
